Time;durP1;ratioP1;P1;durP2;ratioP2;P2;SDS_P1;SDS_P2;PMS_P1;PMS_P2;Temp;Humidity;BMP_temperature;BMP_pressure;BME280_temperature;BME280_humidity;BME280_pressure;Samples;Min_cycle;Max_cycle;Signal;HPM_P1;HPM_P2
2023/05/08 00:00:57;;;;;;;0.80;0.80;;;;;;;13.40;55.39;99989.78;4426488;32;34304;-81
2023/05/08 00:03:27;;;;;;;0.70;0.70;;;;;;;13.51;55.06;99994.81;4428298;32;33222;-79
2023/05/08 00:05:56;;;;;;;0.80;0.80;;;;;;;13.70;54.44;99994.41;4428509;32;33853;-81
2023/05/08 00:08:25;;;;;;;1.10;0.95;;;;;;;13.73;54.33;99997.81;4425636;32;33793;-78
2023/05/08 00:10:54;;;;;;;0.90;0.88;;;;;;;13.59;54.73;99992.87;4433023;32;33719;-81
2023/05/08 00:13:22;;;;;;;0.80;0.80;;;;;;;13.50;54.96;99993.06;4426571;32;33431;-79
2023/05/08 00:15:53;;;;;;;0.95;0.82;;;;;;;13.59;54.85;99997.25;4428031;32;33545;-79
2023/05/08 00:18:21;;;;;;;0.60;0.60;;;;;;;13.70;54.51;99990.06;4427235;32;34081;-79
2023/05/08 00:20:51;;;;;;;0.98;0.85;;;;;;;13.59;54.67;99998.09;4432366;32;35854;-81
2023/05/08 00:23:21;;;;;;;1.12;0.65;;;;;;;13.65;54.60;100000.59;4429128;32;33396;-80
2023/05/08 00:25:49;;;;;;;0.70;0.70;;;;;;;13.63;54.80;99991.94;4422289;32;33979;-81
2023/05/08 00:28:18;;;;;;;0.70;0.70;;;;;;;13.43;55.17;99992.34;4413960;32;33114;-81
2023/05/08 00:30:47;;;;;;;0.60;0.60;;;;;;;13.53;55.07;99993.03;4419291;32;33716;-81
2023/05/08 00:33:16;;;;;;;0.60;0.60;;;;;;;13.65;54.82;99997.97;4417934;32;34256;-81
2023/05/08 00:35:45;;;;;;;0.70;0.70;;;;;;;13.42;55.60;99992.38;4414867;32;34233;-79
2023/05/08 00:38:15;;;;;;;0.93;0.93;;;;;;;13.36;55.77;99997.69;4414532;32;34746;-80
2023/05/08 00:40:44;;;;;;;0.93;0.93;;;;;;;13.54;55.29;100005.16;4429440;32;33355;-81
2023/05/08 00:43:13;;;;;;;0.60;0.60;;;;;;;13.60;55.07;100004.16;4433716;32;34485;-78
2023/05/08 00:45:42;;;;;;;1.23;1.02;;;;;;;13.58;55.08;100006.81;4429576;32;33652;-79
2023/05/08 00:48:11;;;;;;;0.70;0.70;;;;;;;13.53;55.51;100003.44;4419170;32;33690;-80
2023/05/08 00:50:41;;;;;;;0.60;0.60;;;;;;;13.32;55.88;100009.94;4415368;32;34580;-79
2023/05/08 00:53:11;;;;;;;0.70;0.70;;;;;;;13.32;56.05;100007.34;4419533;32;33503;-81
2023/05/08 00:55:42;;;;;;;0.70;0.70;;;;;;;13.22;56.41;100011.81;4414880;32;34655;-81
2023/05/08 00:58:11;;;;;;;0.93;0.90;;;;;;;13.21;56.56;100006.63;4413006;32;33254;-80
2023/05/08 01:00:42;;;;;;;1.98;1.35;;;;;;;12.95;57.29;100007.09;4415959;32;33859;-79
2023/05/08 01:03:12;;;;;;;0.70;0.70;;;;;;;13.16;56.92;100008.47;4424067;32;34986;-79
2023/05/08 01:05:41;;;;;;;0.85;0.80;;;;;;;13.18;57.05;100012.75;4421003;32;32978;-81
2023/05/08 01:08:09;;;;;;;0.82;0.82;;;;;;;13.02;57.29;100013.94;4425731;32;34660;-80
2023/05/08 01:10:46;;;;;;;0.70;0.70;;;;;;;13.06;57.49;100014.75;4427623;32;33808;-80
2023/05/08 01:13:27;;;;;;;0.73;0.73;;;;;;;12.58;58.77;100020.75;4411736;32;32661;-79
2023/05/08 01:16:02;;;;;;;0.88;0.85;;;;;;;12.72;58.26;100016.19;4411775;32;33203;-81
2023/05/08 01:18:36;;;;;;;0.80;0.80;;;;;;;13.02;57.22;100022.63;4423865;32;34343;-79
2023/05/08 01:21:13;;;;;;;0.77;0.77;;;;;;;12.89;57.77;100025.47;4422797;32;35452;-79
2023/05/08 01:23:57;;;;;;;0.85;0.80;;;;;;;12.96;57.31;100025.31;4428482;32;33308;-79
2023/05/08 01:27:16;;;;;;;1.02;1.02;;;;;;;12.94;57.58;100031.44;4420848;32;33745;-81
2023/05/08 01:30:16;;;;;;;0.80;0.80;;;;;;;13.04;57.25;100030.37;4368932;32;33928;-78
2023/05/08 01:32:51;;;;;;;0.70;0.70;;;;;;;12.88;57.58;100045.44;4373620;32;33563;-78
2023/05/08 01:35:24;;;;;;;0.80;0.80;;;;;;;12.81;58.00;100044.69;4376531;32;33129;-80
2023/05/08 01:37:58;;;;;;;0.68;0.68;;;;;;;12.68;58.70;100044.88;4372875;32;33725;-83
2023/05/08 01:40:33;;;;;;;0.75;0.75;;;;;;;12.67;58.59;100044.03;4376968;32;34705;-79
2023/05/08 01:43:12;;;;;;;0.80;0.80;;;;;;;12.61;58.65;100046.72;4368290;32;33685;-80
2023/05/08 01:45:45;;;;;;;0.70;0.70;;;;;;;12.40;59.57;100054.88;4378697;32;33039;-80
2023/05/08 01:48:19;;;;;;;1.25;1.15;;;;;;;12.38;59.34;100045.34;4371213;32;33871;-78
2023/05/08 01:50:49;;;;;;;1.10;1.00;;;;;;;12.44;59.10;100056.53;4379282;32;33442;-79
2023/05/08 01:53:26;;;;;;;1.33;1.20;;;;;;;12.54;58.54;100051.19;4383028;32;34525;-78
2023/05/08 01:56:00;;;;;;;0.77;0.77;;;;;;;12.38;59.15;100052.28;4382429;32;33213;-80
2023/05/08 01:58:30;;;;;;;0.70;0.70;;;;;;;12.38;59.10;100062.72;4383454;32;33563;-79
2023/05/08 02:01:02;;;;;;;0.80;0.80;;;;;;;12.38;59.58;100054.91;4382756;32;33952;-80
2023/05/08 02:03:34;;;;;;;0.70;0.70;;;;;;;12.47;59.41;100054.78;4387685;32;34529;-80
2023/05/08 02:06:03;;;;;;;0.90;0.90;;;;;;;12.60;59.01;100052.81;4411721;32;34017;-79
2023/05/08 02:08:33;;;;;;;0.68;0.68;;;;;;;12.48;59.02;100053.03;4420022;32;33941;-79
2023/05/08 02:11:06;;;;;;;1.00;1.00;;;;;;;12.42;59.42;100063.50;4421897;32;33540;-81
2023/05/08 02:13:36;;;;;;;0.70;0.70;;;;;;;12.42;59.10;100060.91;4435273;32;34545;-80
2023/05/08 02:16:07;;;;;;;0.60;0.60;;;;;;;12.52;58.70;100072.91;4419830;32;33753;-82
2023/05/08 02:18:38;;;;;;;0.70;0.70;;;;;;;12.49;58.57;100066.03;4428853;32;34371;-81
2023/05/08 02:21:09;;;;;;;0.70;0.70;;;;;;;12.29;59.27;100068.03;4430968;32;33991;-79
2023/05/08 02:23:38;;;;;;;0.70;0.70;;;;;;;12.16;59.61;100068.22;4421740;32;34193;-81
2023/05/08 02:26:07;;;;;;;0.80;0.80;;;;;;;12.20;59.54;100071.63;4419992;32;34518;-80
2023/05/08 02:28:36;;;;;;;0.80;0.80;;;;;;;12.35;59.32;100076.62;4414779;32;34470;-79
2023/05/08 02:31:05;;;;;;;0.80;0.80;;;;;;;12.17;59.83;100071.66;4416084;32;33650;-81
2023/05/08 02:33:34;;;;;;;1.23;1.12;;;;;;;12.35;59.31;100070.56;4420381;32;34317;-82
2023/05/08 02:36:06;;;;;;;0.75;0.75;;;;;;;12.15;59.66;100063.91;4433272;32;33468;-81
2023/05/08 02:38:35;;;;;;;0.88;0.88;;;;;;;11.92;60.33;100069.38;4424510;32;33937;-79
2023/05/08 02:41:05;;;;;;;0.80;0.80;;;;;;;12.09;59.90;100068.31;4426055;32;33712;-81
2023/05/08 02:43:34;;;;;;;0.80;0.80;;;;;;;12.10;59.84;100064.81;4425932;32;32940;-81
2023/05/08 02:46:10;;;;;;;1.17;1.08;;;;;;;11.93;60.03;100068.50;4418218;32;33742;-80
2023/05/08 02:48:47;;;;;;;0.70;0.70;;;;;;;12.01;60.04;100067.53;4424941;32;34153;-80
2023/05/08 02:51:24;;;;;;;0.73;0.70;;;;;;;11.99;60.25;100061.53;4425248;32;33893;-81
2023/05/08 02:53:58;;;;;;;0.80;0.80;;;;;;;12.10;59.55;100068.28;4426836;32;34052;-79
2023/05/08 02:56:36;;;;;;;0.68;0.68;;;;;;;11.93;60.03;100076.28;4429082;32;33209;-80
2023/05/08 02:59:15;;;;;;;0.60;0.60;;;;;;;11.83;60.67;100079.00;4424859;32;33409;-82
2023/05/08 03:01:50;;;;;;;0.70;0.70;;;;;;;12.07;59.96;100078.72;4429835;32;34319;-81
2023/05/08 03:04:29;;;;;;;0.60;0.60;;;;;;;11.84;60.67;100075.50;4425921;32;34418;-80
2023/05/08 03:07:01;;;;;;;0.70;0.70;;;;;;;11.86;60.74;100076.34;4414546;32;33178;-79
2023/05/08 03:09:40;;;;;;;0.77;0.77;;;;;;;11.70;61.08;100075.69;4415042;32;34473;-81
2023/05/08 03:12:15;;;;;;;0.70;0.70;;;;;;;11.74;60.87;100072.16;4426768;32;33624;-80
2023/05/08 03:14:47;;;;;;;0.80;0.80;;;;;;;11.48;61.74;100078.53;4429895;32;33904;-77
2023/05/08 03:17:17;;;;;;;0.70;0.70;;;;;;;11.73;61.21;100080.84;4425496;32;35570;-80
2023/05/08 03:19:50;;;;;;;1.00;1.00;;;;;;;11.81;61.05;100076.41;4427528;32;34528;-81
2023/05/08 03:22:23;;;;;;;1.60;0.85;;;;;;;11.78;61.11;100078.22;4419562;32;33146;-80
2023/05/08 03:24:53;;;;;;;1.05;1.00;;;;;;;11.81;60.93;100081.63;4414481;32;34505;-82
2023/05/08 03:27:23;;;;;;;0.70;0.70;;;;;;;12.09;59.98;100079.56;4418833;32;33639;-81
2023/05/08 03:29:53;;;;;;;0.98;0.98;;;;;;;11.94;60.87;100079.78;4420807;32;34759;-81
2023/05/08 03:32:27;;;;;;;0.93;0.90;;;;;;;12.04;60.65;100081.37;4426122;32;35326;-82
2023/05/08 03:34:58;;;;;;;0.90;0.90;;;;;;;11.84;61.30;100076.41;4418068;32;34139;-80
2023/05/08 03:37:29;;;;;;;0.80;0.80;;;;;;;11.76;61.81;100086.00;4418066;32;32680;-81
2023/05/08 03:39:58;;;;;;;0.90;0.90;;;;;;;11.91;61.23;100078.09;4424181;32;34511;-79
2023/05/08 03:42:27;;;;;;;1.37;1.27;;;;;;;11.72;62.03;100079.16;4430193;32;33712;-79
2023/05/08 03:44:57;;;;;;;1.55;0.85;;;;;;;11.71;61.49;100083.47;4422118;32;34218;-80
2023/05/08 03:47:27;;;;;;;0.95;0.90;;;;;;;11.65;62.07;100091.34;4415388;32;33540;-80
2023/05/08 03:49:57;;;;;;;0.80;0.80;;;;;;;11.74;61.99;100087.75;4422903;32;34027;-80
2023/05/08 03:52:26;;;;;;;0.90;0.90;;;;;;;11.70;62.31;100089.56;4424291;32;33113;-79
2023/05/08 03:54:56;;;;;;;0.70;0.70;;;;;;;11.87;61.74;100093.72;4415984;32;33322;-81
2023/05/08 03:57:28;;;;;;;2.15;2.05;;;;;;;11.86;61.55;100095.44;4427602;32;32682;-81
2023/05/08 04:00:03;;;;;;;0.80;0.80;;;;;;;11.85;61.76;100093.72;4425936;32;34327;-80
2023/05/08 04:02:46;;;;;;;0.80;0.80;;;;;;;11.72;62.24;100094.75;4429974;32;34697;-79
2023/05/08 04:05:21;;;;;;;1.12;1.00;;;;;;;11.78;62.36;100089.47;4420830;32;33854;-83
2023/05/08 04:07:53;;;;;;;0.80;0.80;;;;;;;11.90;61.90;100089.34;4413830;32;34189;-79
2023/05/08 04:10:32;;;;;;;1.10;1.00;;;;;;;11.81;62.38;100098.97;4412949;32;34510;-80
2023/05/08 04:13:05;;;;;;;0.77;0.77;;;;;;;11.99;62.05;100103.97;4423858;32;34984;-79
2023/05/08 04:15:41;;;;;;;0.90;0.90;;;;;;;12.22;61.29;100106.28;4420048;32;33936;-80
2023/05/08 04:18:15;;;;;;;0.95;0.80;;;;;;;12.26;61.09;100107.97;4427061;32;34678;-80
2023/05/08 04:20:47;;;;;;;0.80;0.80;;;;;;;12.13;60.93;100109.00;4413686;32;33393;-81
2023/05/08 04:23:20;;;;;;;1.00;1.00;;;;;;;12.17;61.17;100113.28;4414307;32;33899;-80
2023/05/08 04:25:52;;;;;;;0.80;0.80;;;;;;;12.08;61.13;100113.38;4413059;32;33763;-80
2023/05/08 04:28:21;;;;;;;0.80;0.80;;;;;;;12.10;61.46;100116.84;4427669;32;33923;-79
2023/05/08 04:30:51;;;;;;;1.15;1.08;;;;;;;12.21;61.05;100122.78;4425062;32;33940;-79
2023/05/08 04:33:20;;;;;;;1.12;1.00;;;;;;;12.26;61.12;100126.16;4413603;32;34722;-78
2023/05/08 04:35:50;;;;;;;0.80;0.80;;;;;;;12.17;61.61;100128.87;4423470;32;33966;-79
2023/05/08 04:38:19;;;;;;;1.00;0.95;;;;;;;12.27;61.75;100122.66;4417978;32;33660;-79
2023/05/08 04:40:48;;;;;;;0.85;0.85;;;;;;;12.42;61.31;100128.56;4427432;32;34286;-80
2023/05/08 04:43:18;;;;;;;1.45;1.00;;;;;;;12.22;61.65;100129.69;4418104;32;33765;-79
2023/05/08 04:45:47;;;;;;;0.70;0.70;;;;;;;12.14;62.09;100145.37;4425529;32;33967;-79
2023/05/08 04:48:17;;;;;;;0.73;0.73;;;;;;;12.30;62.31;100147.81;4427286;32;33117;-80
2023/05/08 04:50:46;;;;;;;0.82;0.82;;;;;;;12.62;61.14;100149.13;4427832;32;33462;-79
2023/05/08 04:53:15;;;;;;;0.95;0.95;;;;;;;12.90;60.21;100152.16;4417380;32;34449;-80
2023/05/08 04:55:44;;;;;;;1.12;1.02;;;;;;;13.06;59.59;100150.19;4428779;32;34486;-81
2023/05/08 04:58:13;;;;;;;3.17;1.12;;;;;;;13.00;59.56;100158.97;4418747;32;33329;-81
2023/05/08 05:00:43;;;;;;;1.17;1.12;;;;;;;12.86;60.15;100155.72;4427170;32;34706;-80
2023/05/08 05:03:12;;;;;;;1.10;1.00;;;;;;;12.74;60.97;100159.34;4427029;32;34498;-81
2023/05/08 05:05:41;;;;;;;1.50;1.40;;;;;;;13.05;60.01;100164.06;4419454;32;33459;-81
2023/05/08 05:08:10;;;;;;;1.15;1.05;;;;;;;13.00;59.90;100167.62;4416025;32;33438;-79
2023/05/08 05:10:38;;;;;;;0.90;0.90;;;;;;;13.05;59.23;100170.16;4418068;32;34374;-80
2023/05/08 05:13:08;;;;;;;0.80;0.80;;;;;;;12.88;60.23;100160.00;4427646;32;34351;-81
2023/05/08 05:15:37;;;;;;;1.05;1.02;;;;;;;12.99;60.20;100165.91;4423055;32;34187;-80
2023/05/08 05:18:07;;;;;;;1.27;1.10;;;;;;;12.74;60.92;100165.41;4429991;32;33279;-80
2023/05/08 05:20:36;;;;;;;1.33;0.98;;;;;;;13.19;59.42;100164.72;4423952;32;33499;-82
2023/05/08 05:23:05;;;;;;;1.23;1.12;;;;;;;13.15;59.85;100163.06;4419927;32;33597;-82
2023/05/08 05:25:34;;;;;;;0.70;0.70;;;;;;;13.29;59.49;100170.66;4415557;32;33597;-80
2023/05/08 05:28:04;;;;;;;0.95;0.90;;;;;;;13.51;58.69;100177.25;4418521;32;33565;-80
2023/05/08 05:30:33;;;;;;;0.90;0.90;;;;;;;13.59;58.27;100164.09;4418397;32;35254;-79
2023/05/08 05:33:02;;;;;;;0.70;0.70;;;;;;;13.95;56.03;100170.34;4419966;32;35284;-81
2023/05/08 05:35:33;;;;;;;1.23;1.12;;;;;;;13.98;56.99;100172.03;4422871;32;34247;-82
2023/05/08 05:38:02;;;;;;;1.05;0.93;;;;;;;14.04;57.35;100174.56;4417864;32;33567;-79
2023/05/08 05:40:31;;;;;;;0.60;0.60;;;;;;;13.96;56.96;100171.22;4424269;32;34431;-81
2023/05/08 05:43:00;;;;;;;0.98;0.93;;;;;;;14.09;57.02;100176.16;4421153;32;34211;-80
2023/05/08 05:45:31;;;;;;;1.33;0.80;;;;;;;14.06;56.84;100176.25;4436014;32;34902;-79
2023/05/08 05:48:02;;;;;;;0.80;0.80;;;;;;;14.24;56.37;100182.81;4428906;32;33615;-82
2023/05/08 05:50:33;;;;;;;1.00;0.95;;;;;;;14.32;56.56;100187.88;4415996;32;33980;-81
2023/05/08 05:53:02;;;;;;;0.77;0.75;;;;;;;14.37;55.71;100186.03;4415931;32;34799;-82
2023/05/08 05:55:31;;;;;;;0.73;0.70;;;;;;;14.59;54.20;100190.84;4420958;32;33570;-82
2023/05/08 05:58:00;;;;;;;0.93;0.90;;;;;;;14.52;54.73;100185.72;4417862;32;34318;-81
2023/05/08 06:00:30;;;;;;;0.80;0.80;;;;;;;14.76;52.70;100177.41;4415926;32;34544;-83
2023/05/08 06:03:01;;;;;;;0.70;0.70;;;;;;;14.58;53.97;100195.19;4417503;32;33879;-82
2023/05/08 06:05:30;;;;;;;1.20;1.10;;;;;;;14.45;54.16;100194.59;4418941;32;33973;-80
2023/05/08 06:08:00;;;;;;;0.73;0.73;;;;;;;14.75;52.51;100192.22;4422525;32;33386;-81
2023/05/08 06:10:29;;;;;;;0.65;0.60;;;;;;;14.60;52.91;100188.19;4420261;32;33800;-82
2023/05/08 06:12:58;;;;;;;1.02;1.00;;;;;;;14.84;51.29;100188.56;4416461;32;33707;-81
2023/05/08 06:15:27;;;;;;;0.68;0.68;;;;;;;14.09;51.61;100178.78;4416026;32;34299;-82
2023/05/08 06:17:57;;;;;;;0.60;0.60;;;;;;;14.51;50.89;100186.59;4426731;32;33198;-80
2023/05/08 06:20:26;;;;;;;0.80;0.80;;;;;;;14.51;52.02;100189.22;4419728;32;33945;-80
2023/05/08 06:22:54;;;;;;;0.70;0.70;;;;;;;14.38;49.76;100190.38;4421640;32;34470;-82
2023/05/08 06:25:26;;;;;;;0.60;0.60;;;;;;;13.95;48.46;100195.59;4417661;32;34638;-83
2023/05/08 06:27:56;;;;;;;0.50;0.50;;;;;;;14.29;47.78;100194.03;4421410;32;34013;-81
2023/05/08 06:30:24;;;;;;;0.60;0.60;;;;;;;14.11;46.86;100196.13;4421289;32;34077;-81
2023/05/08 06:32:53;;;;;;;0.60;0.60;;;;;;;14.01;47.26;100191.12;4411121;32;33154;-81
2023/05/08 06:35:22;;;;;;;0.80;0.80;;;;;;;14.02;46.96;100190.22;4419230;32;34857;-81
2023/05/08 06:37:51;;;;;;;0.60;0.60;;;;;;;14.20;45.48;100188.12;4416151;32;33972;-82
2023/05/08 06:40:20;;;;;;;0.50;0.50;;;;;;;13.50;48.04;100201.59;4418270;32;33548;-80
2023/05/08 06:42:50;;;;;;;0.90;0.70;;;;;;;13.95;47.52;100198.19;4413670;32;33550;-81
2023/05/08 06:45:19;;;;;;;0.52;0.52;;;;;;;14.02;46.18;100195.44;4420505;32;33539;-82
2023/05/08 06:47:48;;;;;;;0.80;0.80;;;;;;;14.01;46.05;100203.28;4414611;32;33333;-83
2023/05/08 06:50:18;;;;;;;0.50;0.50;;;;;;;14.24;46.20;100202.84;4419796;32;34801;-82
2023/05/08 06:52:47;;;;;;;0.50;0.50;;;;;;;13.97;46.81;100196.44;4417623;32;33850;-82
2023/05/08 06:55:16;;;;;;;0.50;0.50;;;;;;;14.29;46.17;100201.00;4415908;32;34161;-82
2023/05/08 06:57:45;;;;;;;0.50;0.50;;;;;;;13.85;46.83;100216.63;4418105;32;34122;-80
2023/05/08 07:00:15;;;;;;;0.50;0.50;;;;;;;13.98;46.50;100209.41;4420735;32;33510;-82
2023/05/08 07:02:44;;;;;;;0.60;0.60;;;;;;;13.93;46.42;100211.25;4421161;32;33662;-82
2023/05/08 07:05:13;;;;;;;0.55;0.55;;;;;;;13.95;46.93;100211.25;4415726;32;34248;-83
2023/05/08 07:07:42;;;;;;;0.50;0.50;;;;;;;13.93;46.31;100208.66;4419989;32;33255;-81
2023/05/08 07:10:11;;;;;;;0.50;0.50;;;;;;;14.17;46.56;100203.84;4413935;32;33512;-82
2023/05/08 07:12:40;;;;;;;0.70;0.70;;;;;;;14.23;46.56;100203.72;4425169;32;34516;-81
2023/05/08 07:15:10;;;;;;;0.57;0.57;;;;;;;14.56;46.73;100214.41;4418677;32;34500;-82
2023/05/08 07:17:55;;;;;;;0.50;0.50;;;;;;;15.05;45.18;100215.94;4425540;32;33401;-82
2023/05/08 07:20:24;;;;;;;0.97;0.97;;;;;;;15.21;44.77;100219.91;4419066;32;32696;-82
2023/05/08 07:22:53;;;;;;;0.40;0.40;;;;;;;15.71;43.60;100211.75;4418506;32;34030;-82
2023/05/08 07:25:25;;;;;;;1.23;1.15;;;;;;;15.01;45.35;100219.53;4405856;32;35892;-82
2023/05/08 07:27:53;;;;;;;0.50;0.50;;;;;;;15.66;44.12;100211.81;4408865;32;33748;-82
2023/05/08 07:30:22;;;;;;;0.40;0.40;;;;;;;15.21;44.42;100216.44;4424296;32;33679;-82
2023/05/08 07:32:51;;;;;;;0.50;0.50;;;;;;;14.75;44.52;100209.66;4429423;32;33811;-81
2023/05/08 07:35:21;;;;;;;0.47;0.47;;;;;;;14.89;44.93;100215.44;4418321;32;33863;-81
2023/05/08 07:37:50;;;;;;;0.50;0.50;;;;;;;14.40;45.54;100212.09;4432958;32;33452;-81
2023/05/08 07:40:19;;;;;;;0.60;0.60;;;;;;;14.99;44.59;100221.31;4424715;32;33677;-83
2023/05/08 07:42:48;;;;;;;0.62;0.62;;;;;;;15.44;44.33;100215.88;4430668;32;34460;-81
2023/05/08 07:45:17;;;;;;;0.50;0.50;;;;;;;15.01;44.89;100214.31;4429175;32;34101;-82
2023/05/08 07:47:50;;;;;;;0.43;0.43;;;;;;;15.25;44.16;100216.34;4426597;32;33361;-80
2023/05/08 07:50:19;;;;;;;0.90;0.50;;;;;;;15.81;42.29;100215.84;4413886;32;33258;-81
2023/05/08 07:52:49;;;;;;;0.60;0.60;;;;;;;16.10;41.37;100216.81;4414602;32;34108;-82
2023/05/08 07:55:19;;;;;;;0.52;0.52;;;;;;;15.84;41.35;100207.91;4420494;32;33986;-82
2023/05/08 07:57:48;;;;;;;0.40;0.40;;;;;;;15.13;44.06;100219.25;4423239;32;33170;-82
2023/05/08 08:00:17;;;;;;;0.40;0.40;;;;;;;15.77;42.71;100214.19;4433716;32;34030;-81
2023/05/08 08:02:46;;;;;;;0.50;0.50;;;;;;;15.54;44.05;100209.53;4415912;32;33554;-80
2023/05/08 08:05:15;;;;;;;0.50;0.50;;;;;;;15.61;44.08;100218.94;4415452;32;33761;-82
2023/05/08 08:07:44;;;;;;;0.57;0.50;;;;;;;15.45;44.18;100214.97;4419929;32;33520;-82
2023/05/08 08:10:15;;;;;;;0.40;0.40;;;;;;;15.52;43.81;100221.78;4424902;32;34347;-81
2023/05/08 08:12:44;;;;;;;0.85;0.50;;;;;;;16.00;43.14;100209.22;4414292;32;34041;-82
2023/05/08 08:15:13;;;;;;;0.60;0.60;;;;;;;15.83;43.83;100219.28;4416933;32;34229;-81
2023/05/08 08:17:42;;;;;;;0.50;0.50;;;;;;;15.34;44.22;100208.28;4416473;32;33296;-82
2023/05/08 08:20:11;;;;;;;0.57;0.57;;;;;;;15.13;44.95;100208.78;4418674;32;33990;-81
2023/05/08 08:22:40;;;;;;;0.43;0.43;;;;;;;16.00;43.71;100214.44;4416931;32;33507;-82
2023/05/08 08:25:09;;;;;;;0.65;0.65;;;;;;;16.34;43.42;100212.66;4420504;32;33833;-82
2023/05/08 08:27:40;;;;;;;0.47;0.47;;;;;;;16.29;42.50;100215.41;4426155;32;33257;-81
2023/05/08 08:30:09;;;;;;;0.50;0.50;;;;;;;15.73;43.03;100209.94;4416057;32;33933;-78
2023/05/08 08:32:46;;;;;;;0.50;0.50;;;;;;;15.32;43.79;100214.44;4431012;32;34469;-79
2023/05/08 08:35:15;;;;;;;0.50;0.50;;;;;;;15.86;44.33;100213.09;4427295;32;33325;-81
2023/05/08 08:37:44;;;;;;;0.90;0.80;;;;;;;15.75;42.33;100210.75;4425527;32;33663;-79
2023/05/08 08:40:13;;;;;;;0.50;0.50;;;;;;;16.00;42.85;100203.13;4425415;32;34353;-79
2023/05/08 08:42:43;;;;;;;0.50;0.50;;;;;;;16.19;41.77;100209.56;4431582;32;33865;-80
2023/05/08 08:45:12;;;;;;;0.50;0.50;;;;;;;16.50;42.47;100207.81;4427403;32;34885;-82
2023/05/08 08:47:45;;;;;;;0.50;0.50;;;;;;;15.75;43.33;100205.50;4421934;32;34074;-82
2023/05/08 08:50:15;;;;;;;0.40;0.40;;;;;;;15.92;42.91;100199.84;4425669;32;34043;-80
2023/05/08 08:52:48;;;;;;;0.50;0.50;;;;;;;15.70;43.71;100208.25;4420855;32;32937;-79
2023/05/08 08:55:18;;;;;;;0.40;0.40;;;;;;;16.09;43.41;100207.22;4426390;32;33530;-80
2023/05/08 08:57:55;;;;;;;0.50;0.50;;;;;;;16.23;42.30;100205.09;4422524;32;33231;-82
2023/05/08 09:00:28;;;;;;;0.43;0.43;;;;;;;15.99;42.59;100201.38;4419637;32;34714;-81
2023/05/08 09:02:57;;;;;;;0.40;0.40;;;;;;;16.53;40.89;100208.59;4420638;32;33953;-80
2023/05/08 09:05:26;;;;;;;0.50;0.50;;;;;;;16.75;40.12;100213.19;4426532;32;34110;-81
2023/05/08 09:07:55;;;;;;;0.40;0.40;;;;;;;16.08;40.65;100211.59;4431686;32;33340;-81
2023/05/08 09:10:25;;;;;;;0.40;0.40;;;;;;;16.30;40.50;100211.00;4422709;32;33991;-80
2023/05/08 09:12:55;;;;;;;0.40;0.40;;;;;;;16.62;40.39;100203.09;4425007;32;34757;-81
2023/05/08 09:15:23;;;;;;;0.40;0.40;;;;;;;16.78;40.02;100207.84;4415971;32;34209;-82
2023/05/08 09:17:52;;;;;;;0.50;0.50;;;;;;;16.64;39.89;100206.50;4426502;32;32983;-81
2023/05/08 09:20:21;;;;;;;0.40;0.40;;;;;;;16.70;40.42;100199.38;4419857;32;33362;-79
2023/05/08 09:22:51;;;;;;;0.40;0.40;;;;;;;17.03;40.04;100210.59;4423350;32;33880;-79
2023/05/08 09:25:20;;;;;;;0.40;0.40;;;;;;;16.71;40.70;100206.31;4420833;32;33821;-81
2023/05/08 09:27:49;;;;;;;0.40;0.40;;;;;;;16.77;39.09;100195.69;4429270;32;33596;-82
2023/05/08 09:30:19;;;;;;;0.40;0.40;;;;;;;17.44;37.47;100201.38;4434290;32;34618;-81
2023/05/08 09:32:48;;;;;;;0.40;0.40;;;;;;;16.96;37.69;100196.84;4433395;32;33033;-82
2023/05/08 09:35:17;;;;;;;0.40;0.40;;;;;;;16.81;37.59;100205.16;4432471;32;34085;-82
2023/05/08 09:37:46;;;;;;;0.40;0.40;;;;;;;16.93;37.19;100207.41;4434408;32;33262;-82
2023/05/08 09:40:17;;;;;;;0.40;0.40;;;;;;;17.40;36.07;100201.56;4437323;32;33421;-81
2023/05/08 09:42:47;;;;;;;0.40;0.40;;;;;;;17.81;35.92;100202.81;4425862;32;34352;-82
2023/05/08 09:45:28;;;;;;;0.40;0.40;;;;;;;17.80;34.73;100197.56;4421344;32;33746;-81
2023/05/08 09:47:57;;;;;;;0.40;0.40;;;;;;;17.48;34.97;100205.63;4422545;32;33276;-82
2023/05/08 09:50:26;;;;;;;0.32;0.32;;;;;;;17.62;35.08;100197.31;4423933;32;33967;-81
2023/05/08 09:52:59;;;;;;;0.30;0.30;;;;;;;17.71;35.52;100196.16;4430428;32;33723;-80
2023/05/08 09:55:28;;;;;;;0.40;0.40;;;;;;;17.89;35.85;100187.66;4415705;32;34112;-83
2023/05/08 09:57:58;;;;;;;0.30;0.30;;;;;;;17.54;36.18;100185.34;4420257;32;33665;-81
2023/05/08 10:00:29;;;;;;;0.30;0.30;;;;;;;18.33;34.89;100184.31;4423050;32;32503;-81
2023/05/08 10:02:59;;;;;;;0.30;0.30;;;;;;;17.87;36.49;100178.97;4424028;32;34043;-82
2023/05/08 10:05:29;;;;;;;0.30;0.30;;;;;;;18.19;35.13;100186.59;4420594;32;33879;-82
2023/05/08 10:08:18;;;;;;;0.40;0.40;;;;;;;18.07;34.63;100177.38;4412297;32;33445;-81
2023/05/08 10:10:46;;;;;;;0.30;0.30;;;;;;;18.72;33.46;100179.28;4417489;32;33467;-80
2023/05/08 10:13:15;;;;;;;0.30;0.30;;;;;;;18.35;35.08;100179.87;4418985;32;33646;-81
2023/05/08 10:15:48;;;;;;;0.30;0.30;;;;;;;18.36;34.99;100183.34;4419979;32;34690;-81
2023/05/08 10:18:17;;;;;;;0.30;0.30;;;;;;;18.72;33.58;100176.66;4418130;32;33669;-83
2023/05/08 10:20:48;;;;;;;0.30;0.30;;;;;;;18.24;33.92;100175.03;4420490;32;33397;-81
2023/05/08 10:23:18;;;;;;;0.95;0.40;;;;;;;18.81;32.60;100172.03;4418087;32;33616;-80
2023/05/08 10:25:48;;;;;;;0.30;0.30;;;;;;;19.29;30.69;100158.66;4417104;32;33757;-80
2023/05/08 10:28:24;;;;;;;0.37;0.37;;;;;;;18.28;33.05;100170.50;4421505;32;33669;-83
2023/05/08 10:30:56;;;;;;;0.30;0.30;;;;;;;18.37;32.73;100164.06;4417184;32;33643;-81
2023/05/08 10:33:30;;;;;;;0.30;0.30;;;;;;;18.24;33.46;100161.91;4414649;32;33570;-82
2023/05/08 10:36:00;;;;;;;0.30;0.30;;;;;;;18.75;33.85;100152.91;4416852;32;34339;-81
2023/05/08 10:38:30;;;;;;;0.30;0.30;;;;;;;19.00;34.31;100154.59;4424652;32;34538;-81
2023/05/08 10:41:00;;;;;;;0.30;0.30;;;;;;;18.71;30.92;100156.56;4420036;32;33794;-83
2023/05/08 10:43:30;;;;;;;0.30;0.30;;;;;;;18.76;31.59;100148.53;4415854;32;34137;-80
2023/05/08 10:46:04;;;;;;;0.30;0.30;;;;;;;18.75;31.73;100152.06;4415669;32;34322;-82
2023/05/08 10:48:42;;;;;;;0.30;0.30;;;;;;;18.34;33.57;100144.88;4415390;32;33921;-83
2023/05/08 10:51:15;;;;;;;0.30;0.30;;;;;;;18.68;31.43;100145.34;4426774;32;33954;-81
2023/05/08 10:53:48;;;;;;;0.35;0.35;;;;;;;18.85;31.74;100155.22;4424031;32;34017;-82
2023/05/08 10:56:16;;;;;;;0.30;0.30;;;;;;;19.19;32.69;100149.44;4414830;32;33726;-81
2023/05/08 10:58:45;;;;;;;0.20;0.20;;;;;;;19.33;31.63;100143.59;4415574;32;34175;-80
2023/05/08 11:01:16;;;;;;;0.30;0.30;;;;;;;18.79;32.99;100147.56;4415674;32;34389;-81
2023/05/08 11:03:49;;;;;;;0.30;0.30;;;;;;;19.52;31.08;100147.16;4419506;32;33763;-80
2023/05/08 11:06:39;;;;;;;0.30;0.30;;;;;;;19.29;30.42;100139.38;4412413;32;34695;-82
2023/05/08 11:09:15;;;;;;;0.20;0.20;;;;;;;19.96;30.73;100136.50;4411762;32;33098;-81
2023/05/08 11:11:52;;;;;;;0.30;0.30;;;;;;;19.71;31.62;100133.22;4422381;32;34720;-82
2023/05/08 11:14:22;;;;;;;0.25;0.25;;;;;;;19.64;31.61;100135.22;4427404;32;33702;-81
2023/05/08 11:17:07;;;;;;;0.30;0.30;;;;;;;19.96;29.80;100120.69;4431099;32;34788;-82
2023/05/08 11:19:37;;;;;;;0.25;0.25;;;;;;;19.38;29.96;100124.06;4431721;32;34515;-81
2023/05/08 11:22:17;;;;;;;0.20;0.20;;;;;;;19.27;29.73;100130.69;4429855;32;34712;-82
2023/05/08 11:24:52;;;;;;;0.20;0.20;;;;;;;19.72;29.77;100127.91;4426947;32;33671;-81
2023/05/08 11:28:03;;;;;;;0.20;0.20;;;;;;;20.21;29.12;100119.56;4419556;32;34660;-81
2023/05/08 11:30:38;;;;;;;0.30;0.30;;;;;;;20.21;29.19;100119.56;4398101;32;33393;-82
2023/05/08 11:33:16;;;;;;;0.20;0.20;;;;;;;19.94;28.67;100119.91;4419871;32;33804;-83
2023/05/08 11:35:56;;;;;;;0.20;0.20;;;;;;;20.60;28.72;100130.03;4419840;32;33846;-82
2023/05/08 11:38:27;;;;;;;0.20;0.20;;;;;;;20.11;29.47;100126.19;4414979;32;34474;-81
2023/05/08 11:40:58;;;;;;;0.30;0.30;;;;;;;20.43;28.89;100127.31;4415649;32;33283;-81
2023/05/08 11:43:52;;;;;;;0.20;0.20;;;;;;;20.81;28.21;100119.41;4415872;32;33475;-82
2023/05/08 11:46:22;;;;;;;0.20;0.20;;;;;;;20.83;28.58;100125.47;4418655;32;32104;-81